createdAt,value
2023-01-29T00:01:59.912Z,9.80
2023-01-29T00:04:28.328Z,11.57
2023-01-29T00:06:58.848Z,9.13
2023-01-29T00:09:25.646Z,11.40
2023-01-29T00:11:52.492Z,10.85
2023-01-29T00:14:20.195Z,10.70
2023-01-29T00:16:48.255Z,10.98
2023-01-29T00:19:15.088Z,10.45
2023-01-29T00:24:34.801Z,8.75
2023-01-29T00:27:01.588Z,8.63
2023-01-29T00:29:29.222Z,9.70
2023-01-29T00:31:56.257Z,7.95
2023-01-29T00:34:25.210Z,9.32
2023-01-29T00:36:52.252Z,8.23
2023-01-29T00:39:20.761Z,9.60
2023-01-29T00:41:47.613Z,9.15
2023-01-29T00:44:18.349Z,7.97
2023-01-29T00:46:45.826Z,9.35
2023-01-29T00:49:13.462Z,7.57
2023-01-29T00:51:40.279Z,8.10
2023-01-29T00:54:11.897Z,9.32
2023-01-29T00:56:39.637Z,9.35
2023-01-29T00:59:06.492Z,9.23
2023-01-29T01:01:36.001Z,8.88
2023-01-29T01:04:03.423Z,7.73
2023-01-29T01:06:30.214Z,8.75
2023-01-29T01:09:00.823Z,8.75
2023-01-29T01:11:27.590Z,9.18
2023-01-29T01:14:21.835Z,7.80
2023-01-29T01:16:49.740Z,7.70
2023-01-29T01:19:17.206Z,7.40
2023-01-29T01:21:44.763Z,7.72
2023-01-29T01:24:12.842Z,6.63
2023-01-29T01:26:40.035Z,9.82
2023-01-29T01:29:10.729Z,6.70
2023-01-29T01:31:38.438Z,8.02
2023-01-29T01:34:06.805Z,8.45
2023-01-29T01:36:59.001Z,6.65
2023-01-29T01:39:28.858Z,6.00
2023-01-29T01:41:56.739Z,6.80
2023-01-29T01:44:54.779Z,7.07
2023-01-29T01:47:29.244Z,8.23
2023-01-29T01:53:08.212Z,6.50
2023-01-29T01:55:48.089Z,7.93
2023-01-29T01:58:31.174Z,6.95
2023-01-29T02:00:58.262Z,5.97
2023-01-29T02:03:28.619Z,6.07
2023-01-29T02:05:58.977Z,7.13
2023-01-29T02:08:41.837Z,7.20
2023-01-29T02:11:09.797Z,7.32
2023-01-29T02:13:38.478Z,8.18
2023-01-29T02:16:08.876Z,7.22
2023-01-29T02:18:35.928Z,7.88
2023-01-29T02:21:14.668Z,6.70
2023-01-29T02:24:20.658Z,7.47
2023-01-29T02:26:56.295Z,7.85
2023-01-29T02:29:25.750Z,8.30
2023-01-29T02:32:28.855Z,7.55
2023-01-29T02:35:28.939Z,8.83
2023-01-29T02:40:58.155Z,7.78
2023-01-29T02:43:47.879Z,7.15
2023-01-29T02:46:45.771Z,6.20
2023-01-29T02:49:34.947Z,7.47
2023-01-29T02:52:53.831Z,5.65
2023-01-29T02:55:26.958Z,6.85
2023-01-29T02:58:04.121Z,7.25
2023-01-29T03:00:40.216Z,6.63
2023-01-29T03:03:16.563Z,5.57
2023-01-29T03:05:50.929Z,7.45
2023-01-29T03:08:26.261Z,6.93
2023-01-29T03:11:02.043Z,6.65
2023-01-29T03:13:40.052Z,7.05
2023-01-29T03:16:16.630Z,7.70
2023-01-29T03:18:52.965Z,7.55
2023-01-29T03:21:31.149Z,6.63
2023-01-29T03:24:00.272Z,6.18
2023-01-29T03:26:27.725Z,7.78
2023-01-29T03:28:54.625Z,6.67
2023-01-29T03:31:25.032Z,8.02
2023-01-29T03:34:02.132Z,7.00
2023-01-29T03:36:39.043Z,6.22
2023-01-29T03:39:08.221Z,6.97
2023-01-29T03:41:40.549Z,6.60
2023-01-29T03:44:33.065Z,6.85
2023-01-29T03:47:17.966Z,7.00
2023-01-29T03:50:05.984Z,6.20
2023-01-29T03:52:47.971Z,5.65
2023-01-29T03:55:23.005Z,6.07
2023-01-29T03:58:39.648Z,6.05
2023-01-29T04:01:18.462Z,6.15
2023-01-29T04:07:01.942Z,6.78
2023-01-29T04:09:45.835Z,7.00
2023-01-29T04:15:18.190Z,6.88
2023-01-29T04:17:52.902Z,5.95
2023-01-29T04:20:29.318Z,7.53
2023-01-29T04:22:57.519Z,7.70
2023-01-29T04:25:33.451Z,6.75
2023-01-29T04:28:12.522Z,6.32
2023-01-29T04:30:59.039Z,6.72
2023-01-29T04:33:38.779Z,6.82
2023-01-29T04:36:20.970Z,7.57
2023-01-29T04:39:18.820Z,7.22
2023-01-29T04:42:21.893Z,7.00
2023-01-29T04:44:55.119Z,5.85
2023-01-29T04:47:40.951Z,6.05
2023-01-29T04:50:37.135Z,5.27
2023-01-29T04:53:38.255Z,6.78
2023-01-29T04:56:11.093Z,6.10
2023-01-29T04:58:47.945Z,6.10
2023-01-29T05:01:20.288Z,5.43
2023-01-29T05:03:52.458Z,6.37
2023-01-29T05:06:45.352Z,7.60
2023-01-29T05:09:18.272Z,4.93
2023-01-29T05:11:47.738Z,6.35
2023-01-29T05:14:19.276Z,6.85
2023-01-29T05:16:52.708Z,5.53
2023-01-29T05:19:23.111Z,6.47
2023-01-29T05:21:50.411Z,7.60
2023-01-29T05:24:21.277Z,7.50
2023-01-29T05:26:51.348Z,6.03
2023-01-29T05:29:18.075Z,6.17
2023-01-29T05:31:45.351Z,6.90
2023-01-29T05:34:13.429Z,6.55
2023-01-29T05:36:40.165Z,6.85
2023-01-29T05:39:12.071Z,6.50
2023-01-29T05:41:38.879Z,8.23
2023-01-29T05:44:07.028Z,7.10
2023-01-29T05:46:34.395Z,6.53
2023-01-29T05:49:01.538Z,8.85
2023-01-29T05:51:28.433Z,7.25
2023-01-29T05:53:55.373Z,8.00
2023-01-29T05:56:22.250Z,8.45
2023-01-29T05:58:49.439Z,6.50
2023-01-29T06:01:22.949Z,7.80
2023-01-29T06:03:49.857Z,7.75
2023-01-29T06:06:19.084Z,7.10
2023-01-29T06:08:46.673Z,6.75
2023-01-29T06:11:15.205Z,6.13
2023-01-29T06:13:44.064Z,7.43
2023-01-29T06:16:13.169Z,7.53
2023-01-29T06:18:44.075Z,5.97
2023-01-29T06:21:35.863Z,7.57
2023-01-29T06:24:02.960Z,7.75
2023-01-29T06:26:54.899Z,6.43
2023-01-29T06:29:23.435Z,6.28
2023-01-29T06:31:51.484Z,7.30
2023-01-29T06:34:19.932Z,6.75
2023-01-29T06:36:47.668Z,7.05
2023-01-29T06:39:15.923Z,7.30
2023-01-29T06:41:42.816Z,8.48
2023-01-29T06:44:12.083Z,7.60
2023-01-29T06:46:42.579Z,6.40
2023-01-29T06:49:09.342Z,6.78
2023-01-29T06:51:39.729Z,8.40
2023-01-29T06:54:06.526Z,8.57
2023-01-29T06:56:33.296Z,6.37
2023-01-29T06:59:01.960Z,6.97
2023-01-29T07:01:35.995Z,6.55
2023-01-29T07:04:07.126Z,6.22
2023-01-29T07:06:34.528Z,6.38
2023-01-29T07:09:02.157Z,6.50
2023-01-29T07:11:29.151Z,6.55
2023-01-29T07:13:56.217Z,7.40
2023-01-29T07:19:17.192Z,8.65
2023-01-29T07:21:45.462Z,8.37
2023-01-29T07:24:13.071Z,6.95
2023-01-29T07:26:40.443Z,6.72
2023-01-29T07:29:07.267Z,8.20
2023-01-29T07:34:26.067Z,7.13
2023-01-29T07:36:55.965Z,7.72
2023-01-29T07:39:23.705Z,7.47
2023-01-29T07:41:51.074Z,8.07
2023-01-29T07:44:18.463Z,6.63
2023-01-29T07:46:48.610Z,7.53
2023-01-29T07:49:16.825Z,7.57
2023-01-29T07:51:43.576Z,7.65
2023-01-29T07:54:34.955Z,9.07
2023-01-29T07:57:01.852Z,7.32
2023-01-29T07:59:33.023Z,9.70
2023-01-29T08:02:01.631Z,6.70
2023-01-29T08:04:28.737Z,6.93
2023-01-29T08:06:55.509Z,7.55
2023-01-29T08:09:22.531Z,6.78
2023-01-29T08:11:51.110Z,7.50
2023-01-29T08:14:21.427Z,7.57
2023-01-29T08:19:41.058Z,7.45
2023-01-29T08:22:07.937Z,7.32
2023-01-29T08:24:53.257Z,7.63
2023-01-29T08:27:24.610Z,9.13
2023-01-29T08:29:52.473Z,8.77
2023-01-29T08:32:20.276Z,9.02
2023-01-29T08:34:49.241Z,9.15
2023-01-29T08:37:16.158Z,7.87
2023-01-29T08:42:33.400Z,7.93
2023-01-29T08:45:00.244Z,8.23
2023-01-29T08:47:56.101Z,8.27
2023-01-29T08:50:23.597Z,7.27
2023-01-29T08:52:50.641Z,7.40
2023-01-29T08:55:17.978Z,7.95
2023-01-29T08:57:45.146Z,9.00
2023-01-29T09:00:16.243Z,7.93
2023-01-29T09:02:43.171Z,8.63
2023-01-29T09:05:11.352Z,7.53
2023-01-29T09:07:38.119Z,7.75
2023-01-29T09:10:09.279Z,7.15
2023-01-29T09:12:37.187Z,8.57
2023-01-29T09:15:04.835Z,9.63
2023-01-29T09:17:32.307Z,10.30
2023-01-29T09:19:59.496Z,7.20
2023-01-29T09:22:27.130Z,6.40
2023-01-29T09:24:54.232Z,7.90
2023-01-29T09:27:21.295Z,9.23
2023-01-29T09:29:48.097Z,8.02
2023-01-29T09:32:16.871Z,8.23
2023-01-29T09:34:46.605Z,8.73
2023-01-29T09:37:13.679Z,9.57
2023-01-29T09:40:06.677Z,9.47
2023-01-29T09:42:52.326Z,7.57
2023-01-29T09:45:24.987Z,9.45
2023-01-29T09:47:54.070Z,9.40
2023-01-29T09:50:26.832Z,9.55
2023-01-29T09:53:21.110Z,8.97
2023-01-29T09:55:55.552Z,9.13
2023-01-29T09:58:33.275Z,8.35
2023-01-29T10:01:22.535Z,7.45
2023-01-29T10:04:25.318Z,7.25
2023-01-29T10:07:01.435Z,9.57
2023-01-29T10:10:03.452Z,10.20
2023-01-29T10:13:15.296Z,8.60
2023-01-29T10:15:55.407Z,8.23
2023-01-29T10:18:45.969Z,9.60
2023-01-29T10:21:18.162Z,8.53
2023-01-29T10:23:54.325Z,10.85
2023-01-29T10:26:32.190Z,9.85
2023-01-29T10:29:02.696Z,10.52
2023-01-29T10:31:32.087Z,9.65
2023-01-29T10:34:15.044Z,9.10
2023-01-29T10:36:46.546Z,8.35
2023-01-29T10:39:22.093Z,9.38
2023-01-29T10:42:16.071Z,9.90
2023-01-29T10:45:22.265Z,8.88
2023-01-29T10:48:25.204Z,9.50
2023-01-29T10:51:09.108Z,10.00
2023-01-29T10:54:22.345Z,10.20
2023-01-29T11:06:10.372Z,10.32
2023-01-29T11:08:49.450Z,10.73
2023-01-29T11:11:19.106Z,11.35
2023-01-29T11:13:49.255Z,10.23
2023-01-29T11:16:16.405Z,9.97
2023-01-29T11:18:57.394Z,9.02
2023-01-29T11:21:29.660Z,10.57
2023-01-29T11:24:06.024Z,10.77
2023-01-29T11:26:37.481Z,9.70
2023-01-29T11:29:05.698Z,12.70
2023-01-29T11:31:39.306Z,9.10
2023-01-29T11:34:18.486Z,11.75
2023-01-29T11:36:46.019Z,11.50
2023-01-29T11:39:21.856Z,9.82
2023-01-29T11:41:59.978Z,10.90
2023-01-29T11:44:33.087Z,11.73
2023-01-29T11:47:20.118Z,14.68
2023-01-29T11:49:49.341Z,9.15
2023-01-29T11:52:21.153Z,11.05
2023-01-29T11:54:53.780Z,11.00
2023-01-29T11:57:29.152Z,11.10
2023-01-29T12:00:01.755Z,8.95
2023-01-29T12:02:43.257Z,11.85
2023-01-29T12:05:35.302Z,11.15
2023-01-29T12:08:03.278Z,9.67
2023-01-29T12:10:39.071Z,11.45
2023-01-29T12:13:28.332Z,10.60
2023-01-29T12:16:46.019Z,11.68
2023-01-29T12:19:33.343Z,11.38
2023-01-29T12:22:17.388Z,11.97
2023-01-29T12:24:59.319Z,12.07
2023-01-29T12:27:53.357Z,12.07
2023-01-29T12:30:52.185Z,11.35
2023-01-29T12:33:47.160Z,12.48
2023-01-29T12:36:27.276Z,11.97
2023-01-29T12:38:58.471Z,12.52
2023-01-29T12:41:30.732Z,11.88
2023-01-29T12:44:19.704Z,12.30
2023-01-29T12:46:55.262Z,12.40
2023-01-29T12:49:26.682Z,11.47
2023-01-29T12:52:19.758Z,12.10
2023-01-29T12:55:28.563Z,14.20
2023-01-29T13:00:57.568Z,14.15
2023-01-29T13:03:53.819Z,13.83
2023-01-29T13:06:31.176Z,14.80
2023-01-29T13:09:30.207Z,13.77
2023-01-29T13:12:12.295Z,12.68
2023-01-29T13:14:59.789Z,12.98
2023-01-29T13:17:36.271Z,18.17
2023-01-29T13:20:13.835Z,12.82
2023-01-29T13:22:44.670Z,12.98
2023-01-29T13:25:20.516Z,14.23
2023-01-29T13:27:51.212Z,13.18
2023-01-29T13:30:33.263Z,14.40
2023-01-29T13:35:46.657Z,13.88
2023-01-29T13:38:29.765Z,14.80
2023-01-29T13:41:01.797Z,13.55
2023-01-29T13:43:35.700Z,13.27
2023-01-29T13:46:11.403Z,15.25
2023-01-29T13:48:44.441Z,13.30
2023-01-29T13:51:14.340Z,13.75
2023-01-29T13:53:43.169Z,14.40
2023-01-29T13:56:35.244Z,11.13
2023-01-29T14:01:59.746Z,12.18
2023-01-29T14:04:30.025Z,12.57
2023-01-29T14:07:44.532Z,12.10
2023-01-29T14:10:19.308Z,11.73
2023-01-29T14:12:48.316Z,13.30
2023-01-29T14:15:27.970Z,11.32
2023-01-29T14:17:58.135Z,10.70
2023-01-29T14:20:48.317Z,12.27
2023-01-29T14:23:24.509Z,11.10
2023-01-29T14:25:53.009Z,13.98
2023-01-29T14:28:26.662Z,15.93
2023-01-29T14:30:55.298Z,11.70
2023-01-29T14:33:34.386Z,13.23
2023-01-29T14:36:07.862Z,12.40
2023-01-29T14:38:40.343Z,12.93
2023-01-29T14:41:24.244Z,14.15
2023-01-29T14:43:54.123Z,12.82
2023-01-29T14:46:42.907Z,11.45
2023-01-29T14:49:12.261Z,13.37
2023-01-29T14:51:44.897Z,12.30
2023-01-29T14:54:27.952Z,12.80
2023-01-29T14:57:04.627Z,12.60
2023-01-29T15:00:03.590Z,12.10
2023-01-29T15:02:45.630Z,11.97
2023-01-29T15:05:19.934Z,13.20
2023-01-29T15:08:27.482Z,12.55
2023-01-29T15:11:00.659Z,12.73
2023-01-29T15:13:38.035Z,13.32
2023-01-29T15:19:20.755Z,13.20
2023-01-29T15:22:23.975Z,12.88
2023-01-29T15:25:14.272Z,13.07
2023-01-29T15:27:45.769Z,12.93
2023-01-29T15:30:39.365Z,12.53
2023-01-29T15:33:09.449Z,13.02
2023-01-29T15:35:40.216Z,13.57
2023-01-29T15:38:32.997Z,12.48
2023-01-29T15:41:16.235Z,12.98
2023-01-29T15:43:51.099Z,12.90
2023-01-29T15:46:39.359Z,12.63
2023-01-29T15:49:10.531Z,13.82
2023-01-29T15:51:43.253Z,13.32
2023-01-29T15:54:16.198Z,12.13
2023-01-29T15:56:53.629Z,13.60
2023-01-29T15:59:26.235Z,13.23
2023-01-29T16:02:28.413Z,11.90
2023-01-29T16:04:56.571Z,10.32
2023-01-29T16:07:24.300Z,10.95
2023-01-29T16:12:49.260Z,12.18
2023-01-29T16:15:27.890Z,11.70
2023-01-29T16:18:24.172Z,11.30
2023-01-29T16:20:57.573Z,11.00
2023-01-29T16:23:38.355Z,10.23
2023-01-29T16:26:08.940Z,11.75
2023-01-29T16:28:44.718Z,11.50
2023-01-29T16:31:14.508Z,10.23
2023-01-29T16:33:43.797Z,12.07
2023-01-29T16:36:24.400Z,11.97
2023-01-29T16:39:02.576Z,13.32
2023-01-29T16:41:37.530Z,14.50
2023-01-29T16:44:32.574Z,12.95
2023-01-29T16:47:24.757Z,11.60
2023-01-29T16:50:35.995Z,10.73
2023-01-29T16:53:31.288Z,10.77
2023-01-29T16:56:10.930Z,11.98
2023-01-29T16:58:41.945Z,12.70
2023-01-29T17:01:11.899Z,12.77
2023-01-29T17:03:41.773Z,11.23
2023-01-29T17:06:19.267Z,11.65
2023-01-29T17:08:52.545Z,11.82
2023-01-29T17:11:28.421Z,12.13
2023-01-29T17:14:00.301Z,12.45
2023-01-29T17:16:30.245Z,12.23
2023-01-29T17:19:00.969Z,13.23
2023-01-29T17:21:33.707Z,12.95
2023-01-29T17:24:04.343Z,13.80
2023-01-29T17:26:32.307Z,12.73
2023-01-29T17:29:06.656Z,13.43
2023-01-29T17:31:34.486Z,13.85
2023-01-29T17:34:02.316Z,13.18
2023-01-29T17:36:31.699Z,14.38
2023-01-29T17:38:59.580Z,13.15
2023-01-29T17:41:30.464Z,11.80
2023-01-29T17:43:58.481Z,13.25
2023-01-29T17:46:29.836Z,12.80
2023-01-29T17:49:30.822Z,13.68
2023-01-29T17:52:03.353Z,11.07
2023-01-29T17:54:31.404Z,12.20
2023-01-29T17:56:59.583Z,9.82
2023-01-29T17:59:36.788Z,13.02
2023-01-29T18:02:05.523Z,11.32
2023-01-29T18:04:33.556Z,9.40
2023-01-29T18:07:06.723Z,12.50
2023-01-29T18:09:34.564Z,29.67
2023-01-29T18:12:02.768Z,11.13
2023-01-29T18:14:31.776Z,11.57
2023-01-29T18:17:00.256Z,10.32
2023-01-29T18:19:30.001Z,12.67
2023-01-29T18:22:00.147Z,10.73
2023-01-29T18:24:27.735Z,12.27
2023-01-29T18:26:59.924Z,12.35
2023-01-29T18:29:29.820Z,13.85
2023-01-29T18:31:59.282Z,12.53
2023-01-29T18:34:27.512Z,12.57
2023-01-29T18:36:56.230Z,13.02
2023-01-29T18:39:24.076Z,13.43
2023-01-29T18:41:52.429Z,11.95
2023-01-29T18:44:21.265Z,14.07
2023-01-29T18:46:48.503Z,11.95
2023-01-29T18:49:16.617Z,13.48
2023-01-29T18:51:45.469Z,12.25
2023-01-29T18:54:16.489Z,11.98
2023-01-29T18:57:13.871Z,10.93
2023-01-29T18:59:35.572Z,12.80
2023-01-29T19:02:04.813Z,11.98
2023-01-29T19:04:58.439Z,12.88
2023-01-29T19:07:28.337Z,13.20
2023-01-29T19:09:56.161Z,12.93
2023-01-29T19:12:25.318Z,12.75
2023-01-29T19:14:53.165Z,12.98
2023-01-29T19:17:20.984Z,12.15
2023-01-29T19:19:50.445Z,12.52
2023-01-29T19:22:18.951Z,11.47
2023-01-29T19:24:46.712Z,15.88
2023-01-29T19:27:16.010Z,12.20
2023-01-29T19:29:43.931Z,14.05
2023-01-29T19:32:14.151Z,12.73
2023-01-29T19:34:41.956Z,11.13
2023-01-29T19:37:09.319Z,12.73
2023-01-29T19:39:37.201Z,12.55
2023-01-29T19:42:04.703Z,11.85
2023-01-29T19:44:32.614Z,12.63
2023-01-29T19:47:00.600Z,12.20
2023-01-29T19:49:31.910Z,13.63
2023-01-29T19:52:00.349Z,13.45
2023-01-29T19:54:29.391Z,14.07
2023-01-29T19:57:03.884Z,12.90
2023-01-29T19:59:32.867Z,13.10
2023-01-29T20:02:01.381Z,15.32
2023-01-29T20:04:31.190Z,12.25
2023-01-29T20:07:00.627Z,12.05
2023-01-29T20:09:28.049Z,14.10
2023-01-29T20:11:55.654Z,15.13
2023-01-29T20:14:23.903Z,14.50
2023-01-29T20:16:53.630Z,14.57
2023-01-29T20:19:22.022Z,14.30
2023-01-29T20:21:49.639Z,14.77
2023-01-29T20:24:17.874Z,13.03
2023-01-29T20:26:45.964Z,14.32
2023-01-29T20:29:15.112Z,16.05
2023-01-29T20:31:44.529Z,15.85
2023-01-29T20:34:13.304Z,15.07
2023-01-29T20:36:44.118Z,16.50
2023-01-29T20:39:16.692Z,19.08
2023-01-29T20:41:44.597Z,21.08
2023-01-29T20:44:12.116Z,31.92
2023-01-29T20:46:45.457Z,29.85
2023-01-29T20:49:14.765Z,26.83
2023-01-29T20:51:43.604Z,25.48
2023-01-29T20:54:12.040Z,24.27
2023-01-29T20:56:39.709Z,23.42
2023-01-29T20:59:15.208Z,24.80
2023-01-29T21:01:43.725Z,22.43
2023-01-29T21:04:13.364Z,23.95
2023-01-29T21:06:46.762Z,26.00
2023-01-29T21:09:15.328Z,27.15
2023-01-29T21:11:44.652Z,23.98
2023-01-29T21:14:12.890Z,24.83
2023-01-29T21:16:41.788Z,23.17
2023-01-29T21:19:10.381Z,23.05
2023-01-29T21:21:39.830Z,25.10
2023-01-29T21:24:08.081Z,21.85
2023-01-29T21:26:35.974Z,16.53
2023-01-29T21:29:05.631Z,23.23
2023-01-29T21:31:33.690Z,23.15
2023-01-29T21:37:18.819Z,20.83
2023-01-29T21:39:45.979Z,28.07
2023-01-29T21:42:13.289Z,26.67
2023-01-29T21:44:41.798Z,27.83
2023-01-29T21:47:09.133Z,28.10
2023-01-29T21:49:35.896Z,28.38
2023-01-29T21:52:03.528Z,29.03
2023-01-29T21:54:32.240Z,24.92
2023-01-29T21:56:59.331Z,27.13
2023-01-29T21:59:53.339Z,28.33
2023-01-29T22:02:22.939Z,28.67
2023-01-29T22:04:53.416Z,27.87
2023-01-29T22:07:20.277Z,26.23
2023-01-29T22:09:47.866Z,27.10
2023-01-29T22:15:07.511Z,29.02
2023-01-29T22:17:34.300Z,27.40
2023-01-29T22:20:01.607Z,28.38
2023-01-29T22:22:29.674Z,29.50
2023-01-29T22:24:56.847Z,28.08
2023-01-29T22:27:23.864Z,29.27
2023-01-29T22:29:54.409Z,28.00
2023-01-29T22:32:25.040Z,32.28
2023-01-29T22:34:51.877Z,30.50
2023-01-29T22:37:19.349Z,31.23
2023-01-29T22:39:46.139Z,30.80
2023-01-29T22:42:14.199Z,31.40
2023-01-29T22:44:40.898Z,31.02
2023-01-29T22:49:59.465Z,42.15
2023-01-29T22:52:26.254Z,40.38
2023-01-29T22:54:53.943Z,45.13
2023-01-29T22:57:20.778Z,35.47
2023-01-29T22:59:47.554Z,32.42
2023-01-29T23:02:14.939Z,30.42
2023-01-29T23:04:45.486Z,42.15
2023-01-29T23:07:13.814Z,40.17
2023-01-29T23:15:25.505Z,36.58
2023-01-29T23:17:52.209Z,37.83
2023-01-29T23:20:19.954Z,36.00
2023-01-29T23:22:48.225Z,33.55
2023-01-29T23:25:15.406Z,34.38
2023-01-29T23:27:43.071Z,28.63
2023-01-29T23:30:10.393Z,28.48
2023-01-29T23:32:37.516Z,26.03
2023-01-29T23:35:06.448Z,26.92
2023-01-29T23:37:33.311Z,25.60
2023-01-29T23:40:00.084Z,26.08
2023-01-29T23:42:31.436Z,25.63
2023-01-29T23:44:59.910Z,28.13
2023-01-29T23:47:51.752Z,24.17
2023-01-29T23:50:19.275Z,25.00
2023-01-29T23:52:46.236Z,24.35
2023-01-29T23:55:16.498Z,22.58
2023-01-29T23:57:43.295Z,23.43
